sensor_id;sensor_type;location;lat;lon;timestamp;temperature;humidity
1524;DHT22;755;53.658;10.118;2024-03-08T00:05:24;1.20;99.90
1524;DHT22;755;53.658;10.118;2024-03-08T00:15:29;1.10;99.90
1524;DHT22;755;53.658;10.118;2024-03-08T00:25:33;1.10;99.90
1524;DHT22;755;53.658;10.118;2024-03-08T00:35:36;0.90;99.90
1524;DHT22;755;53.658;10.118;2024-03-08T00:45:38;0.80;99.90
1524;DHT22;755;53.658;10.118;2024-03-08T00:55:44;0.90;99.90
1524;DHT22;755;53.658;10.118;2024-03-08T01:05:47;0.70;99.90
1524;DHT22;755;53.658;10.118;2024-03-08T01:15:50;0.70;99.90
1524;DHT22;755;53.658;10.118;2024-03-08T01:25:52;0.60;99.90
1524;DHT22;755;53.658;10.118;2024-03-08T01:35:58;0.30;99.90
1524;DHT22;755;53.658;10.118;2024-03-08T01:46:01;0.30;99.90
1524;DHT22;755;53.658;10.118;2024-03-08T01:56:06;0.00;99.90
1524;DHT22;755;53.658;10.118;2024-03-08T02:06:11;0.10;99.90
1524;DHT22;755;53.658;10.118;2024-03-08T02:16:21;0.00;99.90
1524;DHT22;755;53.658;10.118;2024-03-08T02:26:25;-0.20;99.90
1524;DHT22;755;53.658;10.118;2024-03-08T02:36:27;-0.30;99.90
1524;DHT22;755;53.658;10.118;2024-03-08T02:46:31;-0.30;99.90
1524;DHT22;755;53.658;10.118;2024-03-08T02:56:33;-0.50;99.90
1524;DHT22;755;53.658;10.118;2024-03-08T03:06:37;-0.60;99.90
1524;DHT22;755;53.658;10.118;2024-03-08T03:16:39;-0.60;99.90
1524;DHT22;755;53.658;10.118;2024-03-08T03:26:46;-0.70;99.90
1524;DHT22;755;53.658;10.118;2024-03-08T03:36:49;-0.80;99.90
1524;DHT22;755;53.658;10.118;2024-03-08T03:46:52;-0.70;99.90
1524;DHT22;755;53.658;10.118;2024-03-08T03:56:54;-0.80;99.90
1524;DHT22;755;53.658;10.118;2024-03-08T04:06:57;-0.70;99.90
1524;DHT22;755;53.658;10.118;2024-03-08T04:16:59;-0.60;99.90
1524;DHT22;755;53.658;10.118;2024-03-08T04:27:03;-0.80;99.90
1524;DHT22;755;53.658;10.118;2024-03-08T04:37:05;-0.80;99.90
1524;DHT22;755;53.658;10.118;2024-03-08T04:47:08;-0.70;99.90
1524;DHT22;755;53.658;10.118;2024-03-08T04:57:11;-0.70;99.90
1524;DHT22;755;53.658;10.118;2024-03-08T05:07:14;-0.70;99.90
1524;DHT22;755;53.658;10.118;2024-03-08T05:17:16;-0.90;99.90
1524;DHT22;755;53.658;10.118;2024-03-08T05:27:20;-0.80;99.90
1524;DHT22;755;53.658;10.118;2024-03-08T05:37:23;-0.80;99.90
1524;DHT22;755;53.658;10.118;2024-03-08T05:47:27;-0.90;99.90
1524;DHT22;755;53.658;10.118;2024-03-08T05:57:29;-1.10;99.90
1524;DHT22;755;53.658;10.118;2024-03-08T06:07:32;-1.10;99.90
1524;DHT22;755;53.658;10.118;2024-03-08T06:17:35;-1.10;99.90
1524;DHT22;755;53.658;10.118;2024-03-08T06:27:38;-1.10;99.90
1524;DHT22;755;53.658;10.118;2024-03-08T06:37:40;-1.10;99.90
1524;DHT22;755;53.658;10.118;2024-03-08T06:47:44;-0.90;99.90
1524;DHT22;755;53.658;10.118;2024-03-08T06:57:46;-0.60;99.90
1524;DHT22;755;53.658;10.118;2024-03-08T07:07:49;-0.60;99.90
1524;DHT22;755;53.658;10.118;2024-03-08T07:17:51;-0.50;99.90
1524;DHT22;755;53.658;10.118;2024-03-08T07:27:55;-0.30;99.90
1524;DHT22;755;53.658;10.118;2024-03-08T07:37:58;0.10;99.90
1524;DHT22;755;53.658;10.118;2024-03-08T07:48:02;1.20;65.50
1524;DHT22;755;53.658;10.118;2024-03-08T07:58:04;1.70;1.00
1524;DHT22;755;53.658;10.118;2024-03-08T08:08:09;1.80;1.00
1524;DHT22;755;53.658;10.118;2024-03-08T08:18:11;1.40;99.90
1524;DHT22;755;53.658;10.118;2024-03-08T08:28:16;2.00;1.00
1524;DHT22;755;53.658;10.118;2024-03-08T08:38:18;3.50;99.90
1524;DHT22;755;53.658;10.118;2024-03-08T08:48:22;3.90;1.00
1524;DHT22;755;53.658;10.118;2024-03-08T08:58:25;3.20;45.70
1524;DHT22;755;53.658;10.118;2024-03-08T09:08:29;4.00;1.00
1524;DHT22;755;53.658;10.118;2024-03-08T09:18:31;3.80;40.60
1524;DHT22;755;53.658;10.118;2024-03-08T09:28:35;4.50;99.90
1524;DHT22;755;53.658;10.118;2024-03-08T09:38:37;5.10;1.00
1524;DHT22;755;53.658;10.118;2024-03-08T09:48:41;5.40;1.00
1524;DHT22;755;53.658;10.118;2024-03-08T09:58:43;5.30;1.00
1524;DHT22;755;53.658;10.118;2024-03-08T10:09:16;5.40;99.90
1524;DHT22;755;53.658;10.118;2024-03-08T10:19:19;5.60;99.90
1524;DHT22;755;53.658;10.118;2024-03-08T10:29:23;5.80;99.90
1524;DHT22;755;53.658;10.118;2024-03-08T10:39:25;6.00;99.90
1524;DHT22;755;53.658;10.118;2024-03-08T10:49:31;6.00;1.00
1524;DHT22;755;53.658;10.118;2024-03-08T10:59:35;6.00;1.00
1524;DHT22;755;53.658;10.118;2024-03-08T11:09:38;6.10;1.00
1524;DHT22;755;53.658;10.118;2024-03-08T11:19:46;6.20;1.00
1524;DHT22;755;53.658;10.118;2024-03-08T11:30:02;6.40;1.00
1524;DHT22;755;53.658;10.118;2024-03-08T11:40:16;6.40;1.00
1524;DHT22;755;53.658;10.118;2024-03-08T11:50:21;6.70;1.00
1524;DHT22;755;53.658;10.118;2024-03-08T12:00:24;6.80;1.00
1524;DHT22;755;53.658;10.118;2024-03-08T12:10:28;6.70;99.90
1524;DHT22;755;53.658;10.118;2024-03-08T12:20:30;7.00;99.90
1524;DHT22;755;53.658;10.118;2024-03-08T12:30:33;7.00;99.90
1524;DHT22;755;53.658;10.118;2024-03-08T12:40:35;7.10;99.90
1524;DHT22;755;53.658;10.118;2024-03-08T12:50:42;7.30;99.90
1524;DHT22;755;53.658;10.118;2024-03-08T13:00:45;7.40;99.90
1524;DHT22;755;53.658;10.118;2024-03-08T13:10:49;7.50;99.90
1524;DHT22;755;53.658;10.118;2024-03-08T13:20:51;7.60;99.90
1524;DHT22;755;53.658;10.118;2024-03-08T13:30:55;7.70;99.90
1524;DHT22;755;53.658;10.118;2024-03-08T13:40:58;7.80;99.90
1524;DHT22;755;53.658;10.118;2024-03-08T13:51:01;7.80;99.90
1524;DHT22;755;53.658;10.118;2024-03-08T14:01:03;7.90;99.90
1524;DHT22;755;53.658;10.118;2024-03-08T14:11:12;7.80;99.90
1524;DHT22;755;53.658;10.118;2024-03-08T14:21:14;8.00;99.90
1524;DHT22;755;53.658;10.118;2024-03-08T14:31:17;7.90;99.90
1524;DHT22;755;53.658;10.118;2024-03-08T14:41:19;7.90;99.90
1524;DHT22;755;53.658;10.118;2024-03-08T14:51:24;7.90;99.90
1524;DHT22;755;53.658;10.118;2024-03-08T15:01:27;7.90;99.90
1524;DHT22;755;53.658;10.118;2024-03-08T15:11:31;7.90;99.90
1524;DHT22;755;53.658;10.118;2024-03-08T15:21:35;7.90;99.90
1524;DHT22;755;53.658;10.118;2024-03-08T15:31:38;7.80;99.90
1524;DHT22;755;53.658;10.118;2024-03-08T15:41:43;7.80;99.90
1524;DHT22;755;53.658;10.118;2024-03-08T15:51:47;7.80;99.90
1524;DHT22;755;53.658;10.118;2024-03-08T16:01:51;7.70;99.90
1524;DHT22;755;53.658;10.118;2024-03-08T16:11:56;7.50;99.90
1524;DHT22;755;53.658;10.118;2024-03-08T16:22:01;7.40;99.90
1524;DHT22;755;53.658;10.118;2024-03-08T16:32:04;7.20;99.90
1524;DHT22;755;53.658;10.118;2024-03-08T16:42:06;7.20;99.90
1524;DHT22;755;53.658;10.118;2024-03-08T16:52:09;7.10;99.90
1524;DHT22;755;53.658;10.118;2024-03-08T17:02:11;6.90;99.90
1524;DHT22;755;53.658;10.118;2024-03-08T17:12:15;6.70;1.00
1524;DHT22;755;53.658;10.118;2024-03-08T17:22:19;6.50;1.00
1524;DHT22;755;53.658;10.118;2024-03-08T17:32:22;6.40;99.90
1524;DHT22;755;53.658;10.118;2024-03-08T17:42:24;6.20;1.00
1524;DHT22;755;53.658;10.118;2024-03-08T17:52:28;5.90;1.00
1524;DHT22;755;53.658;10.118;2024-03-08T18:02:30;5.10;1.00
1524;DHT22;755;53.658;10.118;2024-03-08T18:12:33;4.70;1.00
1524;DHT22;755;53.658;10.118;2024-03-08T18:22:35;4.40;32.80
1524;DHT22;755;53.658;10.118;2024-03-08T18:32:38;4.20;1.00
1524;DHT22;755;53.658;10.118;2024-03-08T18:42:41;4.00;99.90
1524;DHT22;755;53.658;10.118;2024-03-08T18:52:45;3.80;1.00
1524;DHT22;755;53.658;10.118;2024-03-08T19:02:49;3.70;1.00
1524;DHT22;755;53.658;10.118;2024-03-08T19:12:53;3.50;1.00
1524;DHT22;755;53.658;10.118;2024-03-08T19:22:57;3.40;1.00
1524;DHT22;755;53.658;10.118;2024-03-08T19:33:01;3.30;99.90
1524;DHT22;755;53.658;10.118;2024-03-08T19:43:05;3.30;99.90
1524;DHT22;755;53.658;10.118;2024-03-08T19:53:09;3.40;99.90
1524;DHT22;755;53.658;10.118;2024-03-08T20:03:11;3.50;99.90
1524;DHT22;755;53.658;10.118;2024-03-08T20:13:55;3.40;1.00
1524;DHT22;755;53.658;10.118;2024-03-08T20:25:28;3.60;39.30
1524;DHT22;755;53.658;10.118;2024-03-08T20:36:29;3.70;1.00
1524;DHT22;755;53.658;10.118;2024-03-08T20:47:12;3.90;99.90
1524;DHT22;755;53.658;10.118;2024-03-08T20:57:59;3.80;99.90
1524;DHT22;755;53.658;10.118;2024-03-08T21:08:40;3.90;99.90
1524;DHT22;755;53.658;10.118;2024-03-08T21:19:30;3.80;99.90
1524;DHT22;755;53.658;10.118;2024-03-08T21:30:04;3.80;99.90
1524;DHT22;755;53.658;10.118;2024-03-08T21:40:31;3.70;99.90
1524;DHT22;755;53.658;10.118;2024-03-08T21:50:36;3.70;99.90
1524;DHT22;755;53.658;10.118;2024-03-08T22:00:40;3.70;99.90
1524;DHT22;755;53.658;10.118;2024-03-08T22:10:43;3.70;99.90
1524;DHT22;755;53.658;10.118;2024-03-08T22:20:46;3.60;99.90
1524;DHT22;755;53.658;10.118;2024-03-08T22:30:48;3.70;99.90
1524;DHT22;755;53.658;10.118;2024-03-08T22:40:51;3.50;99.90
1524;DHT22;755;53.658;10.118;2024-03-08T22:50:53;3.50;99.90
1524;DHT22;755;53.658;10.118;2024-03-08T23:00:56;3.40;99.90
1524;DHT22;755;53.658;10.118;2024-03-08T23:11:02;3.30;99.90
1524;DHT22;755;53.658;10.118;2024-03-08T23:21:08;3.30;99.90
1524;DHT22;755;53.658;10.118;2024-03-08T23:31:12;3.10;1.00
1524;DHT22;755;53.658;10.118;2024-03-08T23:41:16;3.10;1.00
1524;DHT22;755;53.658;10.118;2024-03-08T23:51:19;3.10;99.90
